Horton, Kentucky
Current Conditions -  °F | °C
As of 4:15 AM on Wednesday 26 Nov 2014 (Local Time) from K2I0 Reporting Station
Haze Haze  
Wind Chill: -3°   Ceiling: Unl
Heat Index: -3°   Visibility: 4mi
Dew Point: -4°   Wind: 0mph
Humidity: 100%   Direction: NA
Pressure: 30.15"   Gusts: NA
Location:  37.3559°N, 86.8747°W
Report Text: K2I0 261015Z AUTO 00000KT 4SM BR CLR M03/M03 A3015 RMK AO2 T10351035
Loading
Personal Weather Stations






























Interactive Weather Map New forecast layout! Learn more

10-Day Weather Forecast

Advertisements
Track Severe Weather on mobile